sensor_id;sensor_type;location;lat;lon;timestamp;P1;durP1;ratioP1;P2;durP2;ratioP2
70010;SDS011;59543;37.950;-122.338;2023-04-24T00:00:41;7.57;;;1.92;;
70010;SDS011;59543;37.950;-122.338;2023-04-24T00:03:10;22.55;;;12.32;;
70010;SDS011;59543;37.950;-122.338;2023-04-24T00:05:37;7.03;;;1.67;;
70010;SDS011;59543;37.950;-122.338;2023-04-24T00:08:05;5.32;;;1.50;;
70010;SDS011;59543;37.950;-122.338;2023-04-24T00:10:32;7.75;;;1.77;;
70010;SDS011;59543;37.950;-122.338;2023-04-24T00:12:58;7.13;;;1.92;;
70010;SDS011;59543;37.950;-122.338;2023-04-24T00:15:24;5.20;;;1.50;;
70010;SDS011;59543;37.950;-122.338;2023-04-24T00:17:50;8.52;;;2.72;;
70010;SDS011;59543;37.950;-122.338;2023-04-24T00:20:18;7.65;;;1.83;;
70010;SDS011;59543;37.950;-122.338;2023-04-24T00:22:44;9.10;;;2.00;;
70010;SDS011;59543;37.950;-122.338;2023-04-24T00:25:10;6.25;;;2.10;;
70010;SDS011;59543;37.950;-122.338;2023-04-24T00:27:37;5.70;;;2.13;;
70010;SDS011;59543;37.950;-122.338;2023-04-24T00:30:04;7.47;;;2.05;;
70010;SDS011;59543;37.950;-122.338;2023-04-24T00:32:31;8.57;;;1.90;;
70010;SDS011;59543;37.950;-122.338;2023-04-24T00:34:57;5.82;;;1.95;;
70010;SDS011;59543;37.950;-122.338;2023-04-24T00:37:23;8.98;;;2.10;;
70010;SDS011;59543;37.950;-122.338;2023-04-24T00:39:50;7.70;;;2.00;;
70010;SDS011;59543;37.950;-122.338;2023-04-24T00:42:16;6.63;;;1.85;;
70010;SDS011;59543;37.950;-122.338;2023-04-24T00:44:43;12.27;;;2.20;;
70010;SDS011;59543;37.950;-122.338;2023-04-24T00:47:09;9.60;;;2.35;;
70010;SDS011;59543;37.950;-122.338;2023-04-24T00:49:36;8.68;;;2.33;;
70010;SDS011;59543;37.950;-122.338;2023-04-24T00:52:02;11.00;;;2.10;;
70010;SDS011;59543;37.950;-122.338;2023-04-24T00:54:32;7.15;;;2.45;;
70010;SDS011;59543;37.950;-122.338;2023-04-24T00:56:59;11.68;;;2.80;;
70010;SDS011;59543;37.950;-122.338;2023-04-24T00:59:26;10.00;;;2.30;;
70010;SDS011;59543;37.950;-122.338;2023-04-24T01:01:52;12.55;;;2.28;;
70010;SDS011;59543;37.950;-122.338;2023-04-24T01:04:19;12.25;;;2.20;;
70010;SDS011;59543;37.950;-122.338;2023-04-24T01:06:45;7.75;;;2.70;;
70010;SDS011;59543;37.950;-122.338;2023-04-24T01:09:14;10.38;;;3.00;;
70010;SDS011;59543;37.950;-122.338;2023-04-24T01:11:42;10.15;;;2.60;;
70010;SDS011;59543;37.950;-122.338;2023-04-24T01:14:08;10.70;;;2.80;;
70010;SDS011;59543;37.950;-122.338;2023-04-24T01:16:35;12.85;;;2.85;;
70010;SDS011;59543;37.950;-122.338;2023-04-24T01:19:03;9.40;;;2.30;;
70010;SDS011;59543;37.950;-122.338;2023-04-24T01:21:31;14.85;;;3.38;;
70010;SDS011;59543;37.950;-122.338;2023-04-24T01:24:03;9.13;;;2.75;;
70010;SDS011;59543;37.950;-122.338;2023-04-24T01:26:30;8.05;;;2.55;;
70010;SDS011;59543;37.950;-122.338;2023-04-24T01:28:57;9.10;;;2.47;;
70010;SDS011;59543;37.950;-122.338;2023-04-24T01:31:23;8.05;;;2.55;;
70010;SDS011;59543;37.950;-122.338;2023-04-24T01:33:51;10.23;;;3.15;;
70010;SDS011;59543;37.950;-122.338;2023-04-24T01:36:18;15.95;;;4.55;;
70010;SDS011;59543;37.950;-122.338;2023-04-24T01:38:45;19.05;;;6.45;;
70010;SDS011;59543;37.950;-122.338;2023-04-24T01:41:11;20.73;;;5.60;;
70010;SDS011;59543;37.950;-122.338;2023-04-24T01:43:37;28.65;;;6.40;;
70010;SDS011;59543;37.950;-122.338;2023-04-24T01:46:04;29.30;;;7.22;;
70010;SDS011;59543;37.950;-122.338;2023-04-24T01:48:31;26.88;;;6.88;;
70010;SDS011;59543;37.950;-122.338;2023-04-24T01:51:01;27.90;;;7.40;;
70010;SDS011;59543;37.950;-122.338;2023-04-24T01:53:27;27.10;;;6.93;;
70010;SDS011;59543;37.950;-122.338;2023-04-24T01:55:54;30.85;;;7.38;;
70010;SDS011;59543;37.950;-122.338;2023-04-24T01:58:20;33.15;;;7.95;;
70010;SDS011;59543;37.950;-122.338;2023-04-24T02:00:47;31.38;;;8.85;;
70010;SDS011;59543;37.950;-122.338;2023-04-24T02:03:13;30.02;;;7.57;;
70010;SDS011;59543;37.950;-122.338;2023-04-24T02:05:39;30.63;;;8.70;;
70010;SDS011;59543;37.950;-122.338;2023-04-24T02:08:05;42.25;;;9.82;;
70010;SDS011;59543;37.950;-122.338;2023-04-24T02:10:32;33.63;;;8.35;;
70010;SDS011;59543;37.950;-122.338;2023-04-24T02:12:58;34.67;;;8.30;;
70010;SDS011;59543;37.950;-122.338;2023-04-24T02:15:25;33.15;;;7.85;;
70010;SDS011;59543;37.950;-122.338;2023-04-24T02:17:51;32.15;;;8.45;;
70010;SDS011;59543;37.950;-122.338;2023-04-24T02:20:17;34.80;;;8.38;;
70010;SDS011;59543;37.950;-122.338;2023-04-24T02:22:43;32.60;;;8.00;;
70010;SDS011;59543;37.950;-122.338;2023-04-24T02:25:10;38.58;;;8.85;;
70010;SDS011;59543;37.950;-122.338;2023-04-24T02:27:36;31.58;;;8.20;;
70010;SDS011;59543;37.950;-122.338;2023-04-24T02:30:02;37.63;;;9.18;;
70010;SDS011;59543;37.950;-122.338;2023-04-24T02:32:29;29.95;;;8.27;;
70010;SDS011;59543;37.950;-122.338;2023-04-24T02:34:56;37.45;;;9.05;;
70010;SDS011;59543;37.950;-122.338;2023-04-24T02:37:22;33.92;;;8.70;;
70010;SDS011;59543;37.950;-122.338;2023-04-24T02:39:48;65.38;;;10.13;;
70010;SDS011;59543;37.950;-122.338;2023-04-24T02:42:14;45.80;;;10.90;;
70010;SDS011;59543;37.950;-122.338;2023-04-24T02:44:41;56.95;;;11.00;;
70010;SDS011;59543;37.950;-122.338;2023-04-24T02:47:07;41.70;;;9.40;;
70010;SDS011;59543;37.950;-122.338;2023-04-24T02:49:34;50.42;;;10.73;;
70010;SDS011;59543;37.950;-122.338;2023-04-24T02:52:00;47.10;;;10.35;;
70010;SDS011;59543;37.950;-122.338;2023-04-24T02:54:26;45.10;;;9.95;;
70010;SDS011;59543;37.950;-122.338;2023-04-24T02:56:52;42.17;;;10.18;;
70010;SDS011;59543;37.950;-122.338;2023-04-24T02:59:18;31.13;;;8.70;;
70010;SDS011;59543;37.950;-122.338;2023-04-24T03:01:45;45.13;;;10.27;;
70010;SDS011;59543;37.950;-122.338;2023-04-24T03:04:11;43.58;;;10.50;;
70010;SDS011;59543;37.950;-122.338;2023-04-24T03:06:37;50.03;;;11.15;;
70010;SDS011;59543;37.950;-122.338;2023-04-24T03:09:04;41.15;;;9.32;;
70010;SDS011;59543;37.950;-122.338;2023-04-24T03:11:30;50.15;;;11.48;;
70010;SDS011;59543;37.950;-122.338;2023-04-24T03:13:56;42.67;;;10.73;;
70010;SDS011;59543;37.950;-122.338;2023-04-24T03:16:23;48.88;;;12.23;;
70010;SDS011;59543;37.950;-122.338;2023-04-24T03:18:49;41.42;;;9.18;;
70010;SDS011;59543;37.950;-122.338;2023-04-24T03:21:15;44.25;;;10.77;;
70010;SDS011;59543;37.950;-122.338;2023-04-24T03:23:41;41.22;;;9.63;;
70010;SDS011;59543;37.950;-122.338;2023-04-24T03:26:07;53.15;;;11.73;;
70010;SDS011;59543;37.950;-122.338;2023-04-24T03:28:33;41.53;;;10.25;;
70010;SDS011;59543;37.950;-122.338;2023-04-24T03:31:00;47.63;;;9.95;;
70010;SDS011;59543;37.950;-122.338;2023-04-24T03:33:26;43.47;;;9.65;;
70010;SDS011;59543;37.950;-122.338;2023-04-24T03:35:52;41.13;;;10.20;;
70010;SDS011;59543;37.950;-122.338;2023-04-24T03:38:18;41.95;;;10.07;;
70010;SDS011;59543;37.950;-122.338;2023-04-24T03:40:45;41.28;;;9.60;;
70010;SDS011;59543;37.950;-122.338;2023-04-24T03:43:11;38.67;;;9.63;;
70010;SDS011;59543;37.950;-122.338;2023-04-24T03:45:37;47.63;;;10.77;;
70010;SDS011;59543;37.950;-122.338;2023-04-24T03:48:03;48.97;;;11.00;;
70010;SDS011;59543;37.950;-122.338;2023-04-24T03:50:30;47.05;;;11.23;;
70010;SDS011;59543;37.950;-122.338;2023-04-24T03:52:56;56.08;;;12.35;;
70010;SDS011;59543;37.950;-122.338;2023-04-24T03:55:23;57.08;;;12.02;;
70010;SDS011;59543;37.950;-122.338;2023-04-24T03:57:49;39.95;;;10.52;;
70010;SDS011;59543;37.950;-122.338;2023-04-24T04:00:15;49.58;;;10.60;;
70010;SDS011;59543;37.950;-122.338;2023-04-24T04:02:41;51.05;;;12.30;;
70010;SDS011;59543;37.950;-122.338;2023-04-24T04:05:08;44.42;;;10.40;;
70010;SDS011;59543;37.950;-122.338;2023-04-24T04:07:34;49.63;;;12.50;;
70010;SDS011;59543;37.950;-122.338;2023-04-24T04:10:00;54.42;;;11.63;;
70010;SDS011;59543;37.950;-122.338;2023-04-24T04:12:27;52.03;;;11.05;;
70010;SDS011;59543;37.950;-122.338;2023-04-24T04:14:53;54.67;;;11.70;;
70010;SDS011;59543;37.950;-122.338;2023-04-24T04:17:19;52.45;;;12.52;;
70010;SDS011;59543;37.950;-122.338;2023-04-24T04:19:45;54.72;;;11.90;;
70010;SDS011;59543;37.950;-122.338;2023-04-24T04:22:12;51.10;;;12.32;;
70010;SDS011;59543;37.950;-122.338;2023-04-24T04:24:38;54.70;;;11.18;;
70010;SDS011;59543;37.950;-122.338;2023-04-24T04:27:06;61.08;;;12.20;;
70010;SDS011;59543;37.950;-122.338;2023-04-24T04:29:33;54.17;;;11.73;;
70010;SDS011;59543;37.950;-122.338;2023-04-24T04:32:00;63.33;;;12.10;;
70010;SDS011;59543;37.950;-122.338;2023-04-24T04:34:26;47.03;;;11.00;;
70010;SDS011;59543;37.950;-122.338;2023-04-24T04:36:52;53.97;;;12.43;;
70010;SDS011;59543;37.950;-122.338;2023-04-24T04:39:19;47.53;;;11.85;;
70010;SDS011;59543;37.950;-122.338;2023-04-24T04:41:45;56.00;;;12.18;;
70010;SDS011;59543;37.950;-122.338;2023-04-24T04:44:15;56.05;;;12.48;;
70010;SDS011;59543;37.950;-122.338;2023-04-24T04:46:42;54.22;;;12.63;;
70010;SDS011;59543;37.950;-122.338;2023-04-24T04:49:09;47.53;;;11.80;;
70010;SDS011;59543;37.950;-122.338;2023-04-24T04:51:36;47.80;;;12.15;;
70010;SDS011;59543;37.950;-122.338;2023-04-24T04:54:02;63.13;;;12.35;;
70010;SDS011;59543;37.950;-122.338;2023-04-24T04:56:28;46.80;;;12.30;;
70010;SDS011;59543;37.950;-122.338;2023-04-24T04:58:55;51.88;;;12.38;;
70010;SDS011;59543;37.950;-122.338;2023-04-24T05:01:21;57.03;;;11.65;;
70010;SDS011;59543;37.950;-122.338;2023-04-24T05:03:48;57.00;;;10.98;;
70010;SDS011;59543;37.950;-122.338;2023-04-24T05:06:14;45.03;;;11.32;;
70010;SDS011;59543;37.950;-122.338;2023-04-24T05:08:40;44.92;;;11.05;;
70010;SDS011;59543;37.950;-122.338;2023-04-24T05:11:07;45.42;;;10.60;;
70010;SDS011;59543;37.950;-122.338;2023-04-24T05:13:33;55.47;;;11.73;;
70010;SDS011;59543;37.950;-122.338;2023-04-24T05:15:59;46.58;;;11.43;;
70010;SDS011;59543;37.950;-122.338;2023-04-24T05:18:25;45.58;;;11.05;;
70010;SDS011;59543;37.950;-122.338;2023-04-24T05:20:52;53.05;;;11.90;;
70010;SDS011;59543;37.950;-122.338;2023-04-24T05:23:18;54.53;;;11.90;;
70010;SDS011;59543;37.950;-122.338;2023-04-24T05:25:44;55.60;;;11.73;;
70010;SDS011;59543;37.950;-122.338;2023-04-24T05:28:11;53.97;;;12.20;;
70010;SDS011;59543;37.950;-122.338;2023-04-24T05:30:37;56.58;;;12.40;;
70010;SDS011;59543;37.950;-122.338;2023-04-24T05:33:03;51.00;;;11.82;;
70010;SDS011;59543;37.950;-122.338;2023-04-24T05:35:30;56.60;;;12.30;;
70010;SDS011;59543;37.950;-122.338;2023-04-24T05:37:56;48.47;;;12.05;;
70010;SDS011;59543;37.950;-122.338;2023-04-24T05:40:22;57.38;;;12.15;;
70010;SDS011;59543;37.950;-122.338;2023-04-24T05:42:49;50.60;;;12.68;;
70010;SDS011;59543;37.950;-122.338;2023-04-24T05:45:15;50.03;;;12.15;;
70010;SDS011;59543;37.950;-122.338;2023-04-24T05:47:42;56.13;;;13.43;;
70010;SDS011;59543;37.950;-122.338;2023-04-24T05:50:12;51.75;;;12.02;;
70010;SDS011;59543;37.950;-122.338;2023-04-24T05:52:40;50.80;;;12.68;;
70010;SDS011;59543;37.950;-122.338;2023-04-24T05:55:06;59.20;;;13.15;;
70010;SDS011;59543;37.950;-122.338;2023-04-24T05:57:33;64.85;;;13.32;;
70010;SDS011;59543;37.950;-122.338;2023-04-24T05:59:59;50.03;;;12.10;;
70010;SDS011;59543;37.950;-122.338;2023-04-24T06:02:25;58.17;;;13.88;;
70010;SDS011;59543;37.950;-122.338;2023-04-24T06:04:52;65.43;;;14.07;;
70010;SDS011;59543;37.950;-122.338;2023-04-24T06:07:19;55.17;;;13.50;;
70010;SDS011;59543;37.950;-122.338;2023-04-24T06:09:45;65.38;;;14.45;;
70010;SDS011;59543;37.950;-122.338;2023-04-24T06:12:12;62.35;;;14.50;;
70010;SDS011;59543;37.950;-122.338;2023-04-24T06:14:38;70.65;;;14.68;;
70010;SDS011;59543;37.950;-122.338;2023-04-24T06:17:05;67.25;;;14.40;;
70010;SDS011;59543;37.950;-122.338;2023-04-24T06:19:31;64.88;;;13.93;;
70010;SDS011;59543;37.950;-122.338;2023-04-24T06:21:57;60.45;;;14.13;;
70010;SDS011;59543;37.950;-122.338;2023-04-24T06:24:26;64.15;;;14.18;;
70010;SDS011;59543;37.950;-122.338;2023-04-24T06:26:53;60.30;;;13.73;;
70010;SDS011;59543;37.950;-122.338;2023-04-24T06:29:20;67.70;;;14.68;;
70010;SDS011;59543;37.950;-122.338;2023-04-24T06:31:46;66.30;;;14.43;;
70010;SDS011;59543;37.950;-122.338;2023-04-24T06:34:12;59.97;;;13.35;;
70010;SDS011;59543;37.950;-122.338;2023-04-24T06:36:39;66.70;;;14.80;;
70010;SDS011;59543;37.950;-122.338;2023-04-24T06:39:05;63.63;;;14.13;;
70010;SDS011;59543;37.950;-122.338;2023-04-24T06:41:32;61.92;;;13.88;;
70010;SDS011;59543;37.950;-122.338;2023-04-24T06:43:58;60.63;;;13.93;;
70010;SDS011;59543;37.950;-122.338;2023-04-24T06:46:24;70.07;;;14.88;;
70010;SDS011;59543;37.950;-122.338;2023-04-24T06:48:53;59.10;;;13.20;;
70010;SDS011;59543;37.950;-122.338;2023-04-24T06:51:22;74.88;;;15.05;;
70010;SDS011;59543;37.950;-122.338;2023-04-24T06:53:49;66.32;;;14.13;;
70010;SDS011;59543;37.950;-122.338;2023-04-24T06:56:16;63.63;;;14.55;;
70010;SDS011;59543;37.950;-122.338;2023-04-24T06:58:43;62.50;;;13.45;;
70010;SDS011;59543;37.950;-122.338;2023-04-24T07:01:10;74.88;;;14.77;;
70010;SDS011;59543;37.950;-122.338;2023-04-24T07:03:36;73.57;;;15.80;;
70010;SDS011;59543;37.950;-122.338;2023-04-24T07:06:03;67.07;;;14.23;;
70010;SDS011;59543;37.950;-122.338;2023-04-24T07:08:30;63.75;;;13.95;;
70010;SDS011;59543;37.950;-122.338;2023-04-24T07:10:58;66.35;;;14.20;;
70010;SDS011;59543;37.950;-122.338;2023-04-24T07:13:26;62.47;;;13.38;;
70010;SDS011;59543;37.950;-122.338;2023-04-24T07:15:53;70.43;;;14.95;;
70010;SDS011;59543;37.950;-122.338;2023-04-24T07:18:21;63.03;;;13.52;;
70010;SDS011;59543;37.950;-122.338;2023-04-24T07:20:48;65.00;;;13.90;;
70010;SDS011;59543;37.950;-122.338;2023-04-24T07:23:17;59.80;;;13.85;;
70010;SDS011;59543;37.950;-122.338;2023-04-24T07:25:44;59.17;;;13.70;;
70010;SDS011;59543;37.950;-122.338;2023-04-24T07:28:11;62.25;;;13.20;;
70010;SDS011;59543;37.950;-122.338;2023-04-24T07:30:37;67.50;;;14.55;;
70010;SDS011;59543;37.950;-122.338;2023-04-24T07:33:03;61.75;;;13.98;;
70010;SDS011;59543;37.950;-122.338;2023-04-24T07:35:30;63.75;;;14.15;;
70010;SDS011;59543;37.950;-122.338;2023-04-24T07:37:56;55.33;;;13.70;;
70010;SDS011;59543;37.950;-122.338;2023-04-24T07:40:22;60.53;;;13.60;;
70010;SDS011;59543;37.950;-122.338;2023-04-24T07:42:49;64.55;;;14.25;;
70010;SDS011;59543;37.950;-122.338;2023-04-24T07:45:15;75.70;;;13.77;;
70010;SDS011;59543;37.950;-122.338;2023-04-24T07:47:41;66.80;;;14.65;;
70010;SDS011;59543;37.950;-122.338;2023-04-24T07:50:11;74.43;;;14.48;;
70010;SDS011;59543;37.950;-122.338;2023-04-24T07:52:38;67.63;;;14.77;;
70010;SDS011;59543;37.950;-122.338;2023-04-24T07:55:05;55.67;;;13.15;;
70010;SDS011;59543;37.950;-122.338;2023-04-24T07:57:32;68.70;;;14.75;;
70010;SDS011;59543;37.950;-122.338;2023-04-24T07:59:58;63.00;;;14.23;;
70010;SDS011;59543;37.950;-122.338;2023-04-24T08:02:24;80.97;;;14.43;;
70010;SDS011;59543;37.950;-122.338;2023-04-24T08:04:54;67.22;;;13.95;;
70010;SDS011;59543;37.950;-122.338;2023-04-24T08:07:21;70.28;;;14.27;;
70010;SDS011;59543;37.950;-122.338;2023-04-24T08:09:47;62.92;;;14.70;;
70010;SDS011;59543;37.950;-122.338;2023-04-24T08:12:13;63.38;;;14.48;;
70010;SDS011;59543;37.950;-122.338;2023-04-24T08:14:39;67.68;;;14.57;;
70010;SDS011;59543;37.950;-122.338;2023-04-24T08:17:06;67.93;;;14.32;;
70010;SDS011;59543;37.950;-122.338;2023-04-24T08:19:32;72.15;;;13.75;;
70010;SDS011;59543;37.950;-122.338;2023-04-24T08:21:58;81.95;;;17.40;;
70010;SDS011;59543;37.950;-122.338;2023-04-24T08:24:24;70.95;;;16.05;;
70010;SDS011;59543;37.950;-122.338;2023-04-24T08:26:51;73.75;;;15.43;;
70010;SDS011;59543;37.950;-122.338;2023-04-24T08:29:19;72.90;;;16.05;;
70010;SDS011;59543;37.950;-122.338;2023-04-24T08:31:46;85.22;;;16.35;;
70010;SDS011;59543;37.950;-122.338;2023-04-24T08:34:12;66.85;;;14.60;;
70010;SDS011;59543;37.950;-122.338;2023-04-24T08:36:38;64.35;;;14.60;;
70010;SDS011;59543;37.950;-122.338;2023-04-24T08:39:06;65.40;;;14.35;;
70010;SDS011;59543;37.950;-122.338;2023-04-24T08:41:33;68.38;;;14.90;;
70010;SDS011;59543;37.950;-122.338;2023-04-24T08:44:00;84.60;;;17.58;;
70010;SDS011;59543;37.950;-122.338;2023-04-24T08:46:27;74.63;;;16.08;;
70010;SDS011;59543;37.950;-122.338;2023-04-24T08:48:55;73.72;;;15.15;;
70010;SDS011;59543;37.950;-122.338;2023-04-24T08:51:23;72.53;;;16.05;;
70010;SDS011;59543;37.950;-122.338;2023-04-24T08:53:51;73.40;;;15.45;;
70010;SDS011;59543;37.950;-122.338;2023-04-24T08:56:21;86.50;;;16.55;;
70010;SDS011;59543;37.950;-122.338;2023-04-24T08:58:50;73.47;;;15.40;;
70010;SDS011;59543;37.950;-122.338;2023-04-24T09:01:18;72.45;;;16.02;;
70010;SDS011;59543;37.950;-122.338;2023-04-24T09:03:49;72.03;;;15.93;;
70010;SDS011;59543;37.950;-122.338;2023-04-24T09:06:16;70.10;;;15.20;;
70010;SDS011;59543;37.950;-122.338;2023-04-24T09:08:45;78.60;;;15.48;;
70010;SDS011;59543;37.950;-122.338;2023-04-24T09:11:12;70.05;;;15.85;;
70010;SDS011;59543;37.950;-122.338;2023-04-24T09:13:38;81.05;;;16.35;;
70010;SDS011;59543;37.950;-122.338;2023-04-24T09:16:05;69.68;;;15.30;;
70010;SDS011;59543;37.950;-122.338;2023-04-24T09:18:32;72.57;;;15.55;;
70010;SDS011;59543;37.950;-122.338;2023-04-24T09:21:07;81.28;;;17.00;;
70010;SDS011;59543;37.950;-122.338;2023-04-24T09:23:35;76.93;;;16.67;;
70010;SDS011;59543;37.950;-122.338;2023-04-24T09:26:02;61.13;;;14.05;;
70010;SDS011;59543;37.950;-122.338;2023-04-24T09:28:38;84.25;;;16.55;;
70010;SDS011;59543;37.950;-122.338;2023-04-24T09:31:07;81.22;;;17.23;;
70010;SDS011;59543;37.950;-122.338;2023-04-24T09:33:55;84.50;;;16.70;;
70010;SDS011;59543;37.950;-122.338;2023-04-24T09:36:27;79.70;;;17.30;;
70010;SDS011;59543;37.950;-122.338;2023-04-24T09:39:03;95.43;;;18.42;;
70010;SDS011;59543;37.950;-122.338;2023-04-24T09:41:31;82.57;;;17.23;;
70010;SDS011;59543;37.950;-122.338;2023-04-24T09:44:12;80.28;;;15.65;;
70010;SDS011;59543;37.950;-122.338;2023-04-24T09:46:45;82.10;;;16.08;;
70010;SDS011;59543;37.950;-122.338;2023-04-24T09:49:15;79.68;;;16.83;;
70010;SDS011;59543;37.950;-122.338;2023-04-24T09:51:46;78.47;;;16.83;;
70010;SDS011;59543;37.950;-122.338;2023-04-24T09:54:16;73.28;;;15.70;;
70010;SDS011;59543;37.950;-122.338;2023-04-24T09:56:45;79.43;;;17.13;;
70010;SDS011;59543;37.950;-122.338;2023-04-24T09:59:13;76.32;;;16.88;;
70010;SDS011;59543;37.950;-122.338;2023-04-24T10:01:40;81.32;;;16.30;;
70010;SDS011;59543;37.950;-122.338;2023-04-24T10:04:19;84.50;;;16.60;;
70010;SDS011;59543;37.950;-122.338;2023-04-24T10:06:49;77.75;;;16.20;;
70010;SDS011;59543;37.950;-122.338;2023-04-24T10:09:18;70.10;;;15.75;;
70010;SDS011;59543;37.950;-122.338;2023-04-24T10:11:46;81.07;;;16.02;;
70010;SDS011;59543;37.950;-122.338;2023-04-24T10:14:15;86.15;;;17.25;;
70010;SDS011;59543;37.950;-122.338;2023-04-24T10:16:43;72.93;;;15.63;;
70010;SDS011;59543;37.950;-122.338;2023-04-24T10:19:12;75.70;;;16.38;;
70010;SDS011;59543;37.950;-122.338;2023-04-24T10:21:40;80.00;;;16.80;;
70010;SDS011;59543;37.950;-122.338;2023-04-24T10:24:08;88.30;;;16.75;;
70010;SDS011;59543;37.950;-122.338;2023-04-24T10:26:36;74.70;;;16.38;;
70010;SDS011;59543;37.950;-122.338;2023-04-24T10:29:02;97.55;;;17.15;;
70010;SDS011;59543;37.950;-122.338;2023-04-24T10:31:36;85.18;;;17.58;;
70010;SDS011;59543;37.950;-122.338;2023-04-24T10:34:05;97.30;;;17.27;;
70010;SDS011;59543;37.950;-122.338;2023-04-24T10:36:34;97.90;;;18.30;;
70010;SDS011;59543;37.950;-122.338;2023-04-24T10:39:06;91.43;;;18.38;;
70010;SDS011;59543;37.950;-122.338;2023-04-24T10:41:37;78.03;;;16.58;;
70010;SDS011;59543;37.950;-122.338;2023-04-24T10:44:07;83.95;;;17.10;;
70010;SDS011;59543;37.950;-122.338;2023-04-24T10:46:35;65.55;;;15.43;;
70010;SDS011;59543;37.950;-122.338;2023-04-24T10:49:05;85.30;;;17.02;;
70010;SDS011;59543;37.950;-122.338;2023-04-24T10:54:36;79.15;;;16.33;;
70010;SDS011;59543;37.950;-122.338;2023-04-24T10:59:51;71.80;;;16.80;;
70010;SDS011;59543;37.950;-122.338;2023-04-24T11:02:36;67.07;;;15.80;;
70010;SDS011;59543;37.950;-122.338;2023-04-24T11:05:03;73.15;;;15.65;;
70010;SDS011;59543;37.950;-122.338;2023-04-24T11:07:57;81.13;;;16.88;;
70010;SDS011;59543;37.950;-122.338;2023-04-24T11:10:38;68.93;;;16.02;;
70010;SDS011;59543;37.950;-122.338;2023-04-24T11:13:23;81.32;;;16.00;;
70010;SDS011;59543;37.950;-122.338;2023-04-24T11:18:39;86.78;;;17.13;;
70010;SDS011;59543;37.950;-122.338;2023-04-24T11:21:11;77.28;;;14.88;;
70010;SDS011;59543;37.950;-122.338;2023-04-24T11:23:39;81.88;;;16.25;;
70010;SDS011;59543;37.950;-122.338;2023-04-24T11:26:12;83.80;;;16.40;;
70010;SDS011;59543;37.950;-122.338;2023-04-24T11:28:55;74.82;;;16.52;;
70010;SDS011;59543;37.950;-122.338;2023-04-24T11:31:36;67.60;;;16.70;;
70010;SDS011;59543;37.950;-122.338;2023-04-24T11:34:11;80.57;;;16.50;;
70010;SDS011;59543;37.950;-122.338;2023-04-24T11:36:39;69.57;;;14.98;;
70010;SDS011;59543;37.950;-122.338;2023-04-24T11:39:08;74.40;;;15.32;;
70010;SDS011;59543;37.950;-122.338;2023-04-24T11:41:35;76.40;;;15.10;;
70010;SDS011;59543;37.950;-122.338;2023-04-24T11:44:02;76.82;;;15.98;;
70010;SDS011;59543;37.950;-122.338;2023-04-24T11:46:31;82.28;;;17.42;;
70010;SDS011;59543;37.950;-122.338;2023-04-24T11:48:57;80.35;;;16.63;;
70010;SDS011;59543;37.950;-122.338;2023-04-24T11:51:25;72.97;;;15.10;;
70010;SDS011;59543;37.950;-122.338;2023-04-24T11:53:55;86.47;;;18.25;;
70010;SDS011;59543;37.950;-122.338;2023-04-24T11:56:22;78.57;;;16.05;;
70010;SDS011;59543;37.950;-122.338;2023-04-24T11:58:51;79.93;;;15.77;;
70010;SDS011;59543;37.950;-122.338;2023-04-24T12:01:21;84.05;;;16.83;;
70010;SDS011;59543;37.950;-122.338;2023-04-24T12:03:49;84.32;;;15.75;;
70010;SDS011;59543;37.950;-122.338;2023-04-24T12:06:16;76.45;;;15.20;;
70010;SDS011;59543;37.950;-122.338;2023-04-24T12:08:45;76.60;;;15.98;;
70010;SDS011;59543;37.950;-122.338;2023-04-24T12:11:14;71.47;;;15.95;;
70010;SDS011;59543;37.950;-122.338;2023-04-24T12:13:41;78.25;;;15.40;;
70010;SDS011;59543;37.950;-122.338;2023-04-24T12:16:08;82.30;;;16.00;;
70010;SDS011;59543;37.950;-122.338;2023-04-24T12:18:34;72.88;;;16.90;;
70010;SDS011;59543;37.950;-122.338;2023-04-24T12:21:16;86.57;;;16.50;;
70010;SDS011;59543;37.950;-122.338;2023-04-24T12:23:44;73.65;;;16.02;;
70010;SDS011;59543;37.950;-122.338;2023-04-24T12:26:11;81.00;;;16.83;;
70010;SDS011;59543;37.950;-122.338;2023-04-24T12:28:41;82.45;;;17.90;;
70010;SDS011;59543;37.950;-122.338;2023-04-24T12:31:08;81.20;;;16.58;;
70010;SDS011;59543;37.950;-122.338;2023-04-24T12:33:34;78.07;;;17.08;;
70010;SDS011;59543;37.950;-122.338;2023-04-24T12:36:01;90.38;;;16.88;;
70010;SDS011;59543;37.950;-122.338;2023-04-24T12:38:28;75.10;;;16.60;;
70010;SDS011;59543;37.950;-122.338;2023-04-24T12:41:11;74.88;;;15.65;;
70010;SDS011;59543;37.950;-122.338;2023-04-24T12:43:38;76.80;;;15.85;;
70010;SDS011;59543;37.950;-122.338;2023-04-24T12:46:19;73.22;;;15.98;;
70010;SDS011;59543;37.950;-122.338;2023-04-24T12:48:45;71.47;;;15.25;;
70010;SDS011;59543;37.950;-122.338;2023-04-24T12:51:11;68.82;;;16.40;;
70010;SDS011;59543;37.950;-122.338;2023-04-24T12:53:37;70.13;;;15.95;;
70010;SDS011;59543;37.950;-122.338;2023-04-24T12:56:04;73.85;;;15.77;;
70010;SDS011;59543;37.950;-122.338;2023-04-24T12:58:30;80.65;;;16.92;;
70010;SDS011;59543;37.950;-122.338;2023-04-24T13:00:56;86.28;;;16.05;;
70010;SDS011;59543;37.950;-122.338;2023-04-24T13:03:22;62.72;;;14.55;;
70010;SDS011;59543;37.950;-122.338;2023-04-24T13:05:49;74.85;;;15.73;;
70010;SDS011;59543;37.950;-122.338;2023-04-24T13:08:15;72.28;;;15.77;;
70010;SDS011;59543;37.950;-122.338;2023-04-24T13:10:41;77.88;;;16.45;;
70010;SDS011;59543;37.950;-122.338;2023-04-24T13:13:08;88.28;;;16.08;;
70010;SDS011;59543;37.950;-122.338;2023-04-24T13:15:34;70.10;;;16.83;;
70010;SDS011;59543;37.950;-122.338;2023-04-24T13:18:01;79.45;;;16.98;;
70010;SDS011;59543;37.950;-122.338;2023-04-24T13:20:27;69.82;;;15.60;;
70010;SDS011;59543;37.950;-122.338;2023-04-24T13:22:53;73.38;;;15.13;;
70010;SDS011;59543;37.950;-122.338;2023-04-24T13:25:19;70.10;;;16.00;;
70010;SDS011;59543;37.950;-122.338;2023-04-24T13:27:47;64.38;;;16.20;;
70010;SDS011;59543;37.950;-122.338;2023-04-24T13:30:14;70.43;;;15.35;;
70010;SDS011;59543;37.950;-122.338;2023-04-24T13:32:40;86.30;;;17.10;;
70010;SDS011;59543;37.950;-122.338;2023-04-24T13:35:06;63.92;;;15.88;;
70010;SDS011;59543;37.950;-122.338;2023-04-24T13:37:33;62.97;;;15.05;;
70010;SDS011;59543;37.950;-122.338;2023-04-24T13:39:59;84.38;;;16.73;;
70010;SDS011;59543;37.950;-122.338;2023-04-24T13:42:25;61.53;;;14.93;;
70010;SDS011;59543;37.950;-122.338;2023-04-24T13:44:52;68.13;;;15.45;;
70010;SDS011;59543;37.950;-122.338;2023-04-24T13:47:19;67.57;;;15.73;;
70010;SDS011;59543;37.950;-122.338;2023-04-24T13:49:45;85.95;;;16.40;;
70010;SDS011;59543;37.950;-122.338;2023-04-24T13:52:11;76.18;;;16.05;;
70010;SDS011;59543;37.950;-122.338;2023-04-24T13:54:37;76.90;;;15.77;;
70010;SDS011;59543;37.950;-122.338;2023-04-24T13:57:04;75.95;;;15.18;;
70010;SDS011;59543;37.950;-122.338;2023-04-24T13:59:30;73.70;;;15.45;;